sensor_id;sensor_type;location;lat;lon;timestamp;pressure;altitude;pressure_sealevel;temperature;humidity
7940;BME280;4015;48.888;9.226;2022-09-06T00:00:56;159882.28;;;18.46;83.19
7940;BME280;4015;48.888;9.226;2022-09-06T00:03:21;159869.44;;;18.41;83.49
7940;BME280;4015;48.888;9.226;2022-09-06T00:05:47;159875.88;;;18.43;83.34
7940;BME280;4015;48.888;9.226;2022-09-06T00:08:13;159845.06;;;18.31;83.78
7940;BME280;4015;48.888;9.226;2022-09-06T00:10:39;159845.06;;;18.31;84.10
7940;BME280;4015;48.888;9.226;2022-09-06T00:13:07;159838.63;;;18.28;83.71
7940;BME280;4015;48.888;9.226;2022-09-06T00:15:33;159855.31;;;18.35;83.60
7940;BME280;4015;48.888;9.226;2022-09-06T00:18:00;159852.75;;;18.34;83.40
7940;BME280;4015;48.888;9.226;2022-09-06T00:20:27;159874.59;;;18.43;83.38
7940;BME280;4015;48.888;9.226;2022-09-06T00:23:01;159882.28;;;18.46;83.01
7940;BME280;4015;48.888;9.226;2022-09-06T00:25:27;159869.44;;;18.41;82.92
7940;BME280;4015;48.888;9.226;2022-09-06T00:27:58;159854.03;;;18.34;83.33
7940;BME280;4015;48.888;9.226;2022-09-06T00:30:25;159845.06;;;18.31;83.44
7940;BME280;4015;48.888;9.226;2022-09-06T00:32:50;159841.25;;;18.29;83.51
7940;BME280;4015;48.888;9.226;2022-09-06T00:35:17;159837.34;;;18.28;83.56
7940;BME280;4015;48.888;9.226;2022-09-06T00:37:43;159816.84;;;18.20;84.11
7940;BME280;4015;48.888;9.226;2022-09-06T00:40:09;159795.03;;;18.11;84.25
7940;BME280;4015;48.888;9.226;2022-09-06T00:42:35;159797.59;;;18.12;84.39
7940;BME280;4015;48.888;9.226;2022-09-06T00:45:00;159769.34;;;18.01;84.81
7940;BME280;4015;48.888;9.226;2022-09-06T00:47:27;159737.28;;;17.88;85.08
7940;BME280;4015;48.888;9.226;2022-09-06T00:49:54;159736.00;;;17.88;85.20
7940;BME280;4015;48.888;9.226;2022-09-06T00:52:22;159773.19;;;18.02;84.82
7940;BME280;4015;48.888;9.226;2022-09-06T00:54:48;159739.84;;;17.89;84.97
7940;BME280;4015;48.888;9.226;2022-09-06T00:57:15;159705.22;;;17.75;85.28
7940;BME280;4015;48.888;9.226;2022-09-06T00:59:42;159702.66;;;17.74;85.23
7940;BME280;4015;48.888;9.226;2022-09-06T01:02:09;159718.03;;;17.81;85.08
7940;BME280;4015;48.888;9.226;2022-09-06T01:04:36;159698.81;;;17.73;85.45
7940;BME280;4015;48.888;9.226;2022-09-06T01:07:15;159682.09;;;17.66;86.09
7940;BME280;4015;48.888;9.226;2022-09-06T01:29:50;159656.41;;;17.56;87.04
7940;BME280;4015;48.888;9.226;2022-09-06T01:32:50;159649.97;;;17.53;86.76
7940;BME280;4015;48.888;9.226;2022-09-06T01:35:28;159661.53;;;17.58;86.41
7940;BME280;4015;48.888;9.226;2022-09-06T01:37:55;159662.81;;;17.59;86.40
7940;BME280;4015;48.888;9.226;2022-09-06T01:40:21;159680.75;;;17.66;86.30
7940;BME280;4015;48.888;9.226;2022-09-06T01:42:47;159683.38;;;17.67;86.17
7940;BME280;4015;48.888;9.226;2022-09-06T01:45:16;159674.38;;;17.63;86.62
7940;BME280;4015;48.888;9.226;2022-09-06T02:00:47;159688.47;;;17.69;87.18
7940;BME280;4015;48.888;9.226;2022-09-06T02:03:33;159687.22;;;17.68;87.63
7940;BME280;4015;48.888;9.226;2022-09-06T02:06:17;159700.09;;;17.73;87.45
7940;BME280;4015;48.888;9.226;2022-09-06T02:08:47;159705.22;;;17.75;87.23
7940;BME280;4015;48.888;9.226;2022-09-06T02:11:14;159706.50;;;17.76;86.90
7940;BME280;4015;48.888;9.226;2022-09-06T02:13:50;159703.94;;;17.75;86.54
7940;BME280;4015;48.888;9.226;2022-09-06T02:16:23;159728.28;;;17.85;86.23
7940;BME280;4015;48.888;9.226;2022-09-06T02:18:59;159761.69;;;17.98;86.66
7940;BME280;4015;48.888;9.226;2022-09-06T02:21:33;159814.28;;;18.19;87.13
7940;BME280;4015;48.888;9.226;2022-09-06T02:24:02;159851.47;;;18.33;86.71
7940;BME280;4015;48.888;9.226;2022-09-06T02:26:31;159906.69;;;18.55;85.71
7940;BME280;4015;48.888;9.226;2022-09-06T02:28:58;159964.47;;;18.78;83.77
7940;BME280;4015;48.888;9.226;2022-09-06T02:33:58;160115.97;;;19.38;81.34
7940;BME280;4015;48.888;9.226;2022-09-06T02:36:24;160141.69;;;19.49;82.27
7940;BME280;4015;48.888;9.226;2022-09-06T02:38:50;160130.13;;;19.44;85.07
7940;BME280;4015;48.888;9.226;2022-09-06T02:41:18;160020.97;;;19.01;90.43
7940;BME280;4015;48.888;9.226;2022-09-06T02:43:47;159901.53;;;18.53;94.75
7940;BME280;4015;48.888;9.226;2022-09-06T02:46:12;159852.75;;;18.34;98.41
7940;BME280;4015;48.888;9.226;2022-09-06T02:48:38;159823.22;;;18.22;99.39
7940;BME280;4015;48.888;9.226;2022-09-06T02:51:04;159821.94;;;18.22;98.89
7940;BME280;4015;48.888;9.226;2022-09-06T02:53:31;159820.66;;;18.21;97.83
7940;BME280;4015;48.888;9.226;2022-09-06T02:55:57;159805.28;;;18.15;97.83
7940;BME280;4015;48.888;9.226;2022-09-06T02:58:22;159796.31;;;18.12;98.91
7940;BME280;4015;48.888;9.226;2022-09-06T03:00:49;159805.28;;;18.15;97.55
7940;BME280;4015;48.888;9.226;2022-09-06T03:03:15;159813.00;;;18.18;98.08
7940;BME280;4015;48.888;9.226;2022-09-06T03:05:41;159809.16;;;18.17;99.21
7940;BME280;4015;48.888;9.226;2022-09-06T03:08:06;159815.56;;;18.19;100.00
7940;BME280;4015;48.888;9.226;2022-09-06T03:10:32;159811.72;;;18.18;100.00
7940;BME280;4015;48.888;9.226;2022-09-06T03:12:57;159813.00;;;18.18;100.00
7940;BME280;4015;48.888;9.226;2022-09-06T03:15:23;159814.28;;;18.19;100.00
7940;BME280;4015;48.888;9.226;2022-09-06T03:17:48;159800.16;;;18.13;100.00
7940;BME280;4015;48.888;9.226;2022-09-06T03:20:13;159798.88;;;18.13;100.00
7940;BME280;4015;48.888;9.226;2022-09-06T03:22:39;159778.34;;;18.04;100.00
7940;BME280;4015;48.888;9.226;2022-09-06T03:25:08;159834.78;;;18.27;99.89
7940;BME280;4015;48.888;9.226;2022-09-06T03:27:34;159809.16;;;18.17;100.00
7940;BME280;4015;48.888;9.226;2022-09-06T03:29:59;159775.75;;;18.03;100.00
7940;BME280;4015;48.888;9.226;2022-09-06T03:32:25;159793.75;;;18.11;100.00
7940;BME280;4015;48.888;9.226;2022-09-06T03:34:50;159779.63;;;18.05;100.00
7940;BME280;4015;48.888;9.226;2022-09-06T03:37:16;159753.97;;;17.95;100.00
7940;BME280;4015;48.888;9.226;2022-09-06T03:39:41;159725.72;;;17.84;100.00
7940;BME280;4015;48.888;9.226;2022-09-06T03:42:06;159720.59;;;17.82;100.00
7940;BME280;4015;48.888;9.226;2022-09-06T03:44:32;159751.41;;;17.94;100.00
7940;BME280;4015;48.888;9.226;2022-09-06T03:46:57;159714.22;;;17.79;100.00
7940;BME280;4015;48.888;9.226;2022-09-06T03:49:23;159712.88;;;17.78;100.00
7940;BME280;4015;48.888;9.226;2022-09-06T03:51:48;159697.47;;;17.72;100.00
7940;BME280;4015;48.888;9.226;2022-09-06T03:54:14;159689.75;;;17.69;100.00
7940;BME280;4015;48.888;9.226;2022-09-06T03:56:39;159691.03;;;17.70;100.00
7940;BME280;4015;48.888;9.226;2022-09-06T03:59:04;159679.47;;;17.65;100.00
7940;BME280;4015;48.888;9.226;2022-09-06T04:01:30;159683.38;;;17.67;100.00
7940;BME280;4015;48.888;9.226;2022-09-06T04:03:55;159683.38;;;17.67;100.00
7940;BME280;4015;48.888;9.226;2022-09-06T04:06:20;159701.38;;;17.74;100.00
7940;BME280;4015;48.888;9.226;2022-09-06T04:08:46;159705.22;;;17.75;100.00
7940;BME280;4015;48.888;9.226;2022-09-06T04:11:11;159698.81;;;17.73;100.00
7940;BME280;4015;48.888;9.226;2022-09-06T04:13:36;159706.50;;;17.76;100.00
7940;BME280;4015;48.888;9.226;2022-09-06T04:16:03;159714.22;;;17.79;100.00
7940;BME280;4015;48.888;9.226;2022-09-06T04:18:29;159734.72;;;17.87;100.00
7940;BME280;4015;48.888;9.226;2022-09-06T04:20:55;159718.03;;;17.81;100.00
7940;BME280;4015;48.888;9.226;2022-09-06T04:23:22;159710.31;;;17.77;100.00
7940;BME280;4015;48.888;9.226;2022-09-06T04:25:49;159719.31;;;17.81;100.00
7940;BME280;4015;48.888;9.226;2022-09-06T04:28:16;159737.28;;;17.88;100.00
7940;BME280;4015;48.888;9.226;2022-09-06T04:30:43;159742.41;;;17.90;100.00
7940;BME280;4015;48.888;9.226;2022-09-06T04:33:08;159770.63;;;18.01;100.00
7940;BME280;4015;48.888;9.226;2022-09-06T04:35:34;159747.56;;;17.92;100.00
7940;BME280;4015;48.888;9.226;2022-09-06T04:38:00;159777.06;;;18.04;100.00
7940;BME280;4015;48.888;9.226;2022-09-06T04:40:25;159764.25;;;17.99;100.00
7940;BME280;4015;48.888;9.226;2022-09-06T04:42:51;159739.84;;;17.89;100.00
7940;BME280;4015;48.888;9.226;2022-09-06T04:45:16;159737.28;;;17.88;100.00
7940;BME280;4015;48.888;9.226;2022-09-06T04:47:41;159721.88;;;17.82;100.00
7940;BME280;4015;48.888;9.226;2022-09-06T04:50:07;159700.09;;;17.73;100.00
7940;BME280;4015;48.888;9.226;2022-09-06T04:52:32;159703.94;;;17.75;100.00
7940;BME280;4015;48.888;9.226;2022-09-06T04:54:58;159676.94;;;17.64;100.00
7940;BME280;4015;48.888;9.226;2022-09-06T04:57:23;159680.75;;;17.66;100.00
7940;BME280;4015;48.888;9.226;2022-09-06T04:59:49;159706.50;;;17.76;100.00
7940;BME280;4015;48.888;9.226;2022-09-06T05:02:14;159728.28;;;17.85;100.00
7940;BME280;4015;48.888;9.226;2022-09-06T05:04:39;159714.22;;;17.79;100.00
7940;BME280;4015;48.888;9.226;2022-09-06T05:07:07;159729.59;;;17.85;100.00
7940;BME280;4015;48.888;9.226;2022-09-06T05:09:33;159723.16;;;17.83;100.00
7940;BME280;4015;48.888;9.226;2022-09-06T05:11:59;159714.22;;;17.79;100.00
7940;BME280;4015;48.888;9.226;2022-09-06T05:14:25;159727.00;;;17.84;100.00
7940;BME280;4015;48.888;9.226;2022-09-06T05:16:51;159743.66;;;17.91;100.00
7940;BME280;4015;48.888;9.226;2022-09-06T05:19:17;159761.69;;;17.98;100.00
7940;BME280;4015;48.888;9.226;2022-09-06T05:21:43;159771.91;;;18.02;100.00
7940;BME280;4015;48.888;9.226;2022-09-06T05:24:09;159792.44;;;18.10;100.00
7940;BME280;4015;48.888;9.226;2022-09-06T05:26:34;159784.75;;;18.07;100.00
7940;BME280;4015;48.888;9.226;2022-09-06T05:29:00;159795.03;;;18.11;100.00
7940;BME280;4015;48.888;9.226;2022-09-06T05:31:27;159815.56;;;18.19;100.00
7940;BME280;4015;48.888;9.226;2022-09-06T05:33:54;159791.16;;;18.10;100.00
7940;BME280;4015;48.888;9.226;2022-09-06T05:36:20;159778.34;;;18.04;100.00
7940;BME280;4015;48.888;9.226;2022-09-06T05:38:50;159771.91;;;18.02;100.00
7940;BME280;4015;48.888;9.226;2022-09-06T05:41:16;159780.91;;;18.05;100.00
7940;BME280;4015;48.888;9.226;2022-09-06T05:43:42;159788.59;;;18.09;100.00
7940;BME280;4015;48.888;9.226;2022-09-06T05:46:08;159800.16;;;18.13;100.00
7940;BME280;4015;48.888;9.226;2022-09-06T05:48:33;159820.66;;;18.21;100.00
7940;BME280;4015;48.888;9.226;2022-09-06T05:51:00;159816.84;;;18.20;100.00
7940;BME280;4015;48.888;9.226;2022-09-06T05:53:25;159823.22;;;18.22;100.00
7940;BME280;4015;48.888;9.226;2022-09-06T05:55:50;159881.00;;;18.45;100.00
7940;BME280;4015;48.888;9.226;2022-09-06T05:58:16;159877.16;;;18.44;100.00
7940;BME280;4015;48.888;9.226;2022-09-06T06:00:41;159906.69;;;18.55;100.00
7940;BME280;4015;48.888;9.226;2022-09-06T06:03:06;159905.41;;;18.55;100.00
7940;BME280;4015;48.888;9.226;2022-09-06T06:05:32;159945.22;;;18.71;100.00
7940;BME280;4015;48.888;9.226;2022-09-06T06:07:57;159938.81;;;18.68;100.00
7940;BME280;4015;48.888;9.226;2022-09-06T06:10:24;159961.91;;;18.77;100.00
7940;BME280;4015;48.888;9.226;2022-09-06T06:12:49;159955.50;;;18.75;100.00
7940;BME280;4015;48.888;9.226;2022-09-06T06:15:15;159972.19;;;18.81;100.00
7940;BME280;4015;48.888;9.226;2022-09-06T06:17:40;159991.44;;;18.89;100.00
7940;BME280;4015;48.888;9.226;2022-09-06T06:20:06;160011.97;;;18.97;99.06
7940;BME280;4015;48.888;9.226;2022-09-06T06:22:31;160037.66;;;19.07;99.41
7940;BME280;4015;48.888;9.226;2022-09-06T06:24:56;160041.50;;;19.09;99.61
7940;BME280;4015;48.888;9.226;2022-09-06T06:27:22;160062.06;;;19.17;99.31
7940;BME280;4015;48.888;9.226;2022-09-06T06:29:47;160105.69;;;19.34;99.30
7940;BME280;4015;48.888;9.226;2022-09-06T06:32:12;160135.25;;;19.46;98.20
7940;BME280;4015;48.888;9.226;2022-09-06T06:34:38;160177.69;;;19.63;95.90
7940;BME280;4015;48.888;9.226;2022-09-06T06:37:03;160235.44;;;19.86;95.51
7940;BME280;4015;48.888;9.226;2022-09-06T06:39:28;160336.94;;;20.26;92.00
7940;BME280;4015;48.888;9.226;2022-09-06T06:41:54;160411.53;;;20.56;91.93
7940;BME280;4015;48.888;9.226;2022-09-06T06:44:19;160460.38;;;20.75;89.37
7940;BME280;4015;48.888;9.226;2022-09-06T06:46:45;160559.31;;;21.14;86.52
7940;BME280;4015;48.888;9.226;2022-09-06T06:49:10;160525.91;;;21.01;86.16
7940;BME280;4015;48.888;9.226;2022-09-06T06:51:36;160528.47;;;21.02;86.57
7940;BME280;4015;48.888;9.226;2022-09-06T06:54:02;160491.22;;;20.87;88.06
7940;BME280;4015;48.888;9.226;2022-09-06T06:56:30;160506.63;;;20.93;86.62
7940;BME280;4015;48.888;9.226;2022-09-06T06:58:58;160780.50;;;22.02;85.61
7940;BME280;4015;48.888;9.226;2022-09-06T07:01:25;161223.19;;;23.77;77.95
7940;BME280;4015;48.888;9.226;2022-09-06T07:03:51;161385.44;;;24.41;74.93
7940;BME280;4015;48.888;9.226;2022-09-06T07:06:18;161747.44;;;25.85;71.98
7940;BME280;4015;48.888;9.226;2022-09-06T07:08:44;161925.31;;;26.55;69.39
7940;BME280;4015;48.888;9.226;2022-09-06T07:11:11;161934.28;;;26.58;68.40
7940;BME280;4015;48.888;9.226;2022-09-06T07:13:37;161740.97;;;25.82;69.93
7940;BME280;4015;48.888;9.226;2022-09-06T07:16:10;161470.38;;;24.75;72.13
7940;BME280;4015;48.888;9.226;2022-09-06T07:18:36;161318.44;;;24.15;74.09
7940;BME280;4015;48.888;9.226;2022-09-06T07:21:12;161305.56;;;24.10;75.45
7940;BME280;4015;48.888;9.226;2022-09-06T07:23:38;161236.06;;;23.82;76.64
7940;BME280;4015;48.888;9.226;2022-09-06T07:26:04;161305.56;;;24.10;76.37
7940;BME280;4015;48.888;9.226;2022-09-06T07:28:29;161608.25;;;25.29;71.43
7940;BME280;4015;48.888;9.226;2022-09-06T07:30:56;161833.75;;;26.19;70.43
7940;BME280;4015;48.888;9.226;2022-09-06T07:33:22;161824.75;;;26.15;69.20
7940;BME280;4015;48.888;9.226;2022-09-06T07:35:55;161653.34;;;25.47;69.58
7940;BME280;4015;48.888;9.226;2022-09-06T07:38:21;161533.50;;;25.00;71.29
7940;BME280;4015;48.888;9.226;2022-09-06T07:40:55;161613.38;;;25.32;71.03
7940;BME280;4015;48.888;9.226;2022-09-06T07:43:21;161615.97;;;25.33;71.38
7940;BME280;4015;48.888;9.226;2022-09-06T07:45:47;161800.25;;;26.05;69.14
7940;BME280;4015;48.888;9.226;2022-09-06T07:48:13;162074.84;;;27.14;66.05
7940;BME280;4015;48.888;9.226;2022-09-06T07:50:38;162276.06;;;27.93;64.62
7940;BME280;4015;48.888;9.226;2022-09-06T07:53:07;162720.00;;;29.69;59.70
7940;BME280;4015;48.888;9.226;2022-09-06T07:55:32;162820.69;;;30.08;58.12
7940;BME280;4015;48.888;9.226;2022-09-06T07:57:58;162896.91;;;30.39;57.58
7940;BME280;4015;48.888;9.226;2022-09-06T08:00:23;163354.25;;;32.19;53.23
7940;BME280;4015;48.888;9.226;2022-09-06T08:02:49;163468.00;;;32.64;53.10
7940;BME280;4015;48.888;9.226;2022-09-06T08:05:15;163648.97;;;33.35;51.63
7940;BME280;4015;48.888;9.226;2022-09-06T08:07:40;163593.41;;;33.13;49.64
7940;BME280;4015;48.888;9.226;2022-09-06T08:10:06;163557.19;;;32.99;49.56
7940;BME280;4015;48.888;9.226;2022-09-06T08:12:31;163726.56;;;33.66;47.11
7940;BME280;4015;48.888;9.226;2022-09-06T08:14:57;164011.13;;;34.78;47.71
7940;BME280;4015;48.888;9.226;2022-09-06T08:17:22;164203.97;;;35.54;44.93
7940;BME280;4015;48.888;9.226;2022-09-06T08:19:48;164271.22;;;35.80;44.11
7940;BME280;4015;48.888;9.226;2022-09-06T08:22:13;164337.25;;;36.06;44.17
7940;BME280;4015;48.888;9.226;2022-09-06T08:24:39;164303.59;;;35.93;44.46
7940;BME280;4015;48.888;9.226;2022-09-06T08:27:04;164345.03;;;36.09;43.17
7940;BME280;4015;48.888;9.226;2022-09-06T08:29:32;164364.44;;;36.17;41.88
7940;BME280;4015;48.888;9.226;2022-09-06T08:31:58;164686.81;;;37.44;43.07
7940;BME280;4015;48.888;9.226;2022-09-06T08:34:23;164629.84;;;37.21;41.84
7940;BME280;4015;48.888;9.226;2022-09-06T08:36:49;164493.88;;;36.68;40.76
7940;BME280;4015;48.888;9.226;2022-09-06T08:39:14;164534.03;;;36.84;41.99
7940;BME280;4015;48.888;9.226;2022-09-06T08:42:00;164682.97;;;37.42;42.49
7940;BME280;4015;48.888;9.226;2022-09-06T08:44:36;164768.38;;;37.76;41.72
7940;BME280;4015;48.888;9.226;2022-09-06T08:47:07;164866.81;;;38.15;40.35
7940;BME280;4015;48.888;9.226;2022-09-06T08:49:36;164926.44;;;38.38;40.90
7940;BME280;4015;48.888;9.226;2022-09-06T09:00:15;165584.81;;;40.97;35.52
7940;BME280;4015;48.888;9.226;2022-09-06T09:02:46;165381.31;;;40.17;37.59
7940;BME280;4015;48.888;9.226;2022-09-06T09:05:26;165009.31;;;38.71;39.12
7940;BME280;4015;48.888;9.226;2022-09-06T09:10:46;165322.94;;;39.94;37.96
7940;BME280;4015;48.888;9.226;2022-09-06T09:13:58;165578.34;;;40.94;35.66
7940;BME280;4015;48.888;9.226;2022-09-06T09:16:26;165293.13;;;39.82;37.71
7940;BME280;4015;48.888;9.226;2022-09-06T09:18:56;165262.03;;;39.70;37.85
7940;BME280;4015;48.888;9.226;2022-09-06T09:21:24;165126.00;;;39.17;39.45
7940;BME280;4015;48.888;9.226;2022-09-06T09:23:55;165114.28;;;39.12;38.49
7940;BME280;4015;48.888;9.226;2022-09-06T09:26:25;164789.13;;;37.84;40.71
7940;BME280;4015;48.888;9.226;2022-09-06T09:29:09;164198.78;;;35.52;45.01
7940;BME280;4015;48.888;9.226;2022-09-06T09:31:48;163894.66;;;34.32;46.25
7940;BME280;4015;48.888;9.226;2022-09-06T09:34:36;163758.88;;;33.78;48.45
7940;BME280;4015;48.888;9.226;2022-09-06T09:37:22;163559.75;;;33.00;50.78
7940;BME280;4015;48.888;9.226;2022-09-06T09:39:51;163532.66;;;32.89;52.51
7940;BME280;4015;48.888;9.226;2022-09-06T09:42:28;163592.13;;;33.13;48.63
7940;BME280;4015;48.888;9.226;2022-09-06T09:44:55;163717.50;;;33.62;50.01
7940;BME280;4015;48.888;9.226;2022-09-06T09:47:26;164101.69;;;35.13;45.63
7940;BME280;4015;48.888;9.226;2022-09-06T09:49:56;164342.47;;;36.08;44.60
7940;BME280;4015;48.888;9.226;2022-09-06T09:52:27;164526.22;;;36.81;43.61
7940;BME280;4015;48.888;9.226;2022-09-06T09:54:56;164526.22;;;36.81;41.44
7940;BME280;4015;48.888;9.226;2022-09-06T09:57:24;164818.91;;;37.96;41.28
7940;BME280;4015;48.888;9.226;2022-09-06T09:59:54;165115.56;;;39.12;38.21
7940;BME280;4015;48.888;9.226;2022-09-06T10:02:30;165172.59;;;39.35;38.47
7940;BME280;4015;48.888;9.226;2022-09-06T10:07:51;164932.91;;;38.41;39.75
7940;BME280;4015;48.888;9.226;2022-09-06T10:10:29;164971.78;;;38.56;39.37
7940;BME280;4015;48.888;9.226;2022-09-06T10:13:23;165114.28;;;39.12;39.39
7940;BME280;4015;48.888;9.226;2022-09-06T10:15:52;165308.69;;;39.88;37.09
7940;BME280;4015;48.888;9.226;2022-09-06T10:20:58;165788.41;;;41.77;35.69
7940;BME280;4015;48.888;9.226;2022-09-06T10:26:04;166108.78;;;43.03;32.35
7940;BME280;4015;48.888;9.226;2022-09-06T10:28:33;165718.38;;;41.49;34.21
7940;BME280;4015;48.888;9.226;2022-09-06T10:31:08;165483.69;;;40.57;34.53
7940;BME280;4015;48.888;9.226;2022-09-06T10:37:01;165202.38;;;39.47;36.22
7940;BME280;4015;48.888;9.226;2022-09-06T10:40:09;164821.53;;;37.97;39.50
7940;BME280;4015;48.888;9.226;2022-09-06T10:42:49;164382.53;;;36.24;40.00
7940;BME280;4015;48.888;9.226;2022-09-06T10:45:51;164276.38;;;35.82;42.20
7940;BME280;4015;48.888;9.226;2022-09-06T10:48:25;163942.56;;;34.51;43.69
7940;BME280;4015;48.888;9.226;2022-09-06T10:50:57;163822.28;;;34.03;45.19
7940;BME280;4015;48.888;9.226;2022-09-06T10:53:56;163767.97;;;33.82;45.50
7940;BME280;4015;48.888;9.226;2022-09-06T10:59:12;163482.22;;;32.69;47.05
7940;BME280;4015;48.888;9.226;2022-09-06T11:01:51;163431.78;;;32.49;48.39
7940;BME280;4015;48.888;9.226;2022-09-06T11:04:37;163321.94;;;32.06;47.88
7940;BME280;4015;48.888;9.226;2022-09-06T11:07:23;163342.59;;;32.14;47.22
7940;BME280;4015;48.888;9.226;2022-09-06T11:10:04;163484.78;;;32.70;48.60
7940;BME280;4015;48.888;9.226;2022-09-06T11:12:42;163705.91;;;33.58;45.68
7940;BME280;4015;48.888;9.226;2022-09-06T11:15:12;164033.09;;;34.86;44.92
7940;BME280;4015;48.888;9.226;2022-09-06T11:20:21;163872.72;;;34.23;44.59
7940;BME280;4015;48.888;9.226;2022-09-06T11:23:22;163848.16;;;34.14;45.58
7940;BME280;4015;48.888;9.226;2022-09-06T11:28:54;164346.31;;;36.10;41.99
7940;BME280;4015;48.888;9.226;2022-09-06T11:31:31;164584.53;;;37.04;41.34
7940;BME280;4015;48.888;9.226;2022-09-06T11:34:07;165097.44;;;39.05;39.46
7940;BME280;4015;48.888;9.226;2022-09-06T11:39:33;165437.00;;;40.39;35.79
7940;BME280;4015;48.888;9.226;2022-09-06T11:42:00;165102.63;;;39.07;36.87
7940;BME280;4015;48.888;9.226;2022-09-06T11:47:34;165247.78;;;39.64;37.47
7940;BME280;4015;48.888;9.226;2022-09-06T11:50:17;165290.56;;;39.81;37.35
7940;BME280;4015;48.888;9.226;2022-09-06T11:58:03;164830.56;;;38.00;38.13
7940;BME280;4015;48.888;9.226;2022-09-06T12:00:30;164883.66;;;38.21;37.65
7940;BME280;4015;48.888;9.226;2022-09-06T12:02:56;165015.88;;;38.73;39.05
7940;BME280;4015;48.888;9.226;2022-09-06T12:05:26;165215.34;;;39.52;38.20
7940;BME280;4015;48.888;9.226;2022-09-06T12:15:57;165116.88;;;39.13;36.97
7940;BME280;4015;48.888;9.226;2022-09-06T12:21:08;164003.34;;;34.75;42.21
7940;BME280;4015;48.888;9.226;2022-09-06T12:26:03;163514.53;;;32.82;45.57
7940;BME280;4015;48.888;9.226;2022-09-06T12:28:42;163311.59;;;32.02;48.60
7940;BME280;4015;48.888;9.226;2022-09-06T12:31:33;163107.41;;;31.22;49.84
7940;BME280;4015;48.888;9.226;2022-09-06T12:34:39;163018.34;;;30.86;51.95
7940;BME280;4015;48.888;9.226;2022-09-06T12:37:07;162988.63;;;30.75;52.36
7940;BME280;4015;48.888;9.226;2022-09-06T12:39:35;162853.00;;;30.21;53.50
7940;BME280;4015;48.888;9.226;2022-09-06T12:42:13;162784.53;;;29.94;53.35
7940;BME280;4015;48.888;9.226;2022-09-06T12:44:42;162703.25;;;29.62;52.95
7940;BME280;4015;48.888;9.226;2022-09-06T12:47:20;162661.88;;;29.46;51.50
7940;BME280;4015;48.888;9.226;2022-09-06T12:55:33;162562.53;;;29.07;54.79
7940;BME280;4015;48.888;9.226;2022-09-06T12:58:10;162559.97;;;29.06;52.81
7940;BME280;4015;48.888;9.226;2022-09-06T13:00:39;162557.38;;;29.05;56.65
7940;BME280;4015;48.888;9.226;2022-09-06T13:03:22;162556.09;;;29.04;53.95
7940;BME280;4015;48.888;9.226;2022-09-06T13:05:51;162585.72;;;29.16;54.35
7940;BME280;4015;48.888;9.226;2022-09-06T13:08:32;162628.31;;;29.33;53.95
7940;BME280;4015;48.888;9.226;2022-09-06T13:10:59;162674.78;;;29.51;56.38
7940;BME280;4015;48.888;9.226;2022-09-06T13:13:26;162682.56;;;29.54;56.22
7940;BME280;4015;48.888;9.226;2022-09-06T13:15:52;162670.94;;;29.49;55.79
7940;BME280;4015;48.888;9.226;2022-09-06T13:21:07;162722.59;;;29.70;54.18
7940;BME280;4015;48.888;9.226;2022-09-06T13:23:42;162745.78;;;29.79;51.76
7940;BME280;4015;48.888;9.226;2022-09-06T13:26:08;162797.47;;;29.99;50.56
7940;BME280;4015;48.888;9.226;2022-09-06T13:28:34;162918.81;;;30.47;52.52
7940;BME280;4015;48.888;9.226;2022-09-06T13:31:08;163031.22;;;30.92;53.00
7940;BME280;4015;48.888;9.226;2022-09-06T13:33:36;163022.19;;;30.88;53.03
7940;BME280;4015;48.888;9.226;2022-09-06T13:41:01;162890.47;;;30.36;56.10
7940;BME280;4015;48.888;9.226;2022-09-06T13:43:27;162838.78;;;30.16;57.08
7940;BME280;4015;48.888;9.226;2022-09-06T13:46:04;162754.84;;;29.82;57.54
7940;BME280;4015;48.888;9.226;2022-09-06T13:48:30;162696.75;;;29.60;56.17
7940;BME280;4015;48.888;9.226;2022-09-06T13:50:56;162672.22;;;29.50;56.18
7940;BME280;4015;48.888;9.226;2022-09-06T13:53:21;162615.41;;;29.27;56.89
7940;BME280;4015;48.888;9.226;2022-09-06T13:55:46;162572.88;;;29.11;58.13
7940;BME280;4015;48.888;9.226;2022-09-06T13:58:12;162527.69;;;28.93;60.35
7940;BME280;4015;48.888;9.226;2022-09-06T14:00:37;162505.69;;;28.84;59.17
7940;BME280;4015;48.888;9.226;2022-09-06T14:03:05;162479.91;;;28.74;59.03
7940;BME280;4015;48.888;9.226;2022-09-06T14:05:31;162468.28;;;28.69;60.35
7940;BME280;4015;48.888;9.226;2022-09-06T14:07:58;162443.75;;;28.60;61.16
7940;BME280;4015;48.888;9.226;2022-09-06T14:10:24;162442.47;;;28.59;60.65
7940;BME280;4015;48.888;9.226;2022-09-06T14:12:52;162432.19;;;28.55;60.27
7940;BME280;4015;48.888;9.226;2022-09-06T14:15:17;162390.88;;;28.39;61.27
7940;BME280;4015;48.888;9.226;2022-09-06T14:17:43;162354.75;;;28.25;60.36
7940;BME280;4015;48.888;9.226;2022-09-06T14:20:08;162334.13;;;28.16;62.45
7940;BME280;4015;48.888;9.226;2022-09-06T14:22:34;162290.25;;;27.99;63.47
7940;BME280;4015;48.888;9.226;2022-09-06T14:24:59;162261.88;;;27.88;62.28
7940;BME280;4015;48.888;9.226;2022-09-06T14:27:25;162227.06;;;27.74;60.68
7940;BME280;4015;48.888;9.226;2022-09-06T14:29:50;162162.53;;;27.49;62.12
7940;BME280;4015;48.888;9.226;2022-09-06T14:32:15;162126.47;;;27.34;61.86
7940;BME280;4015;48.888;9.226;2022-09-06T14:34:42;162086.47;;;27.19;64.33
7940;BME280;4015;48.888;9.226;2022-09-06T14:37:08;162041.28;;;27.01;65.21
7940;BME280;4015;48.888;9.226;2022-09-06T14:39:34;162031.00;;;26.97;65.58
7940;BME280;4015;48.888;9.226;2022-09-06T14:41:59;161987.19;;;26.79;67.92
7940;BME280;4015;48.888;9.226;2022-09-06T14:44:24;161942.06;;;26.61;67.67
7940;BME280;4015;48.888;9.226;2022-09-06T14:46:50;161900.78;;;26.45;67.26
7940;BME280;4015;48.888;9.226;2022-09-06T14:49:17;161873.72;;;26.34;65.26
7940;BME280;4015;48.888;9.226;2022-09-06T14:51:44;161845.34;;;26.23;64.17
7940;BME280;4015;48.888;9.226;2022-09-06T14:54:12;161827.31;;;26.16;65.16
7940;BME280;4015;48.888;9.226;2022-09-06T14:56:39;161826.03;;;26.16;65.55
7940;BME280;4015;48.888;9.226;2022-09-06T14:59:06;161788.63;;;26.01;65.17
7940;BME280;4015;48.888;9.226;2022-09-06T15:01:32;161766.75;;;25.92;65.40